Time;durP1;ratioP1;P1;durP2;ratioP2;P2;SDS_P1;SDS_P2;PMS_P1;PMS_P2;Temp;Humidity;BMP_temperature;BMP_pressure;BME280_temperature;BME280_humidity;BME280_pressure;Samples;Min_cycle;Max_cycle;Signal;HPM_P1;HPM_P2
2022/04/25 00:01:42;;;;;;;14.20;8.00;;;;;;;;;;5108174;28;20061;-83
2022/04/25 00:04:09;;;;;;;19.25;8.30;;;;;;;;;;5108208;28;20047;-81
2022/04/25 00:06:35;;;;;;;16.35;8.65;;;;;;;;;;5108226;28;20078;-81
2022/04/25 00:09:01;;;;;;;16.23;9.10;;;;;;;;;;5091516;28;20100;-83
2022/04/25 00:11:27;;;;;;;17.45;7.75;;;;;;;;;;5108789;28;20467;-82
2022/04/25 00:13:54;;;;;;;15.85;7.90;;;;;;;;;;5109464;28;20059;-82
2022/04/25 00:16:20;;;;;;;17.13;8.38;;;;;;;;;;5091851;28;20390;-83
2022/04/25 00:18:48;;;;;;;17.92;8.43;;;;;;;;;;5108238;28;20479;-82
2022/04/25 00:21:15;;;;;;;22.40;9.45;;;;;;;;;;5108405;28;20067;-82
2022/04/25 00:23:41;;;;;;;16.98;7.93;;;;;;;;;;5108184;28;20038;-79
2022/04/25 00:26:07;;;;;;;15.40;8.50;;;;;;;;;;5091148;28;20075;-80
2022/04/25 00:28:33;;;;;;;17.83;8.18;;;;;;;;;;5108073;28;20043;-78
2022/04/25 00:30:59;;;;;;;17.33;8.18;;;;;;;;;;5091285;28;20035;-78
2022/04/25 00:33:26;;;;;;;17.92;8.73;;;;;;;;;;5109935;28;20039;-79
2022/04/25 00:35:52;;;;;;;23.75;9.80;;;;;;;;;;5094746;28;20588;-79
2022/04/25 00:38:19;;;;;;;21.20;9.02;;;;;;;;;;5111930;28;20036;-80
2022/04/25 00:40:45;;;;;;;20.08;8.68;;;;;;;;;;5111152;28;20055;-79
2022/04/25 00:43:11;;;;;;;18.30;9.18;;;;;;;;;;5111901;28;20043;-79
2022/04/25 00:45:37;;;;;;;16.65;9.05;;;;;;;;;;5111173;28;20032;-79
2022/04/25 00:48:04;;;;;;;17.50;8.93;;;;;;;;;;5111752;28;20069;-79
2022/04/25 00:50:30;;;;;;;18.55;10.07;;;;;;;;;;5111374;28;20044;-80
2022/04/25 00:52:56;;;;;;;15.57;8.50;;;;;;;;;;5111401;28;20081;-79
2022/04/25 00:55:22;;;;;;;19.92;10.05;;;;;;;;;;5111196;28;20039;-80
2022/04/25 00:57:49;;;;;;;17.25;9.43;;;;;;;;;;5110799;28;20035;-79
2022/04/25 01:00:15;;;;;;;17.98;9.90;;;;;;;;;;5111155;28;20040;-79
2022/04/25 01:02:41;;;;;;;20.05;10.52;;;;;;;;;;5112522;28;20034;-79
2022/04/25 01:05:08;;;;;;;21.48;10.73;;;;;;;;;;5112612;28;20399;-79
2022/04/25 01:07:34;;;;;;;20.58;10.00;;;;;;;;;;5110868;28;20363;-79
2022/04/25 01:10:01;;;;;;;17.80;10.20;;;;;;;;;;5111223;28;20403;-78
2022/04/25 01:12:27;;;;;;;20.27;10.40;;;;;;;;;;5092065;28;20126;-79
2022/04/25 01:14:58;;;;;;;17.92;9.57;;;;;;;;;;5112126;28;20392;-78
2022/04/25 01:17:24;;;;;;;17.83;9.60;;;;;;;;;;5093969;28;20075;-79
2022/04/25 01:19:50;;;;;;;19.63;9.68;;;;;;;;;;5110802;28;20051;-79
2022/04/25 01:22:17;;;;;;;18.67;10.00;;;;;;;;;;5110979;28;20170;-79
2022/04/25 01:27:28;;;;;;;19.35;9.90;;;;;;;;;;5110709;28;20391;-80
2022/04/25 01:29:55;;;;;;;21.33;10.50;;;;;;;;;;5110766;28;20047;-79
2022/04/25 01:32:23;;;;;;;19.33;10.80;;;;;;;;;;5111043;28;20042;-80
2022/04/25 01:34:49;;;;;;;21.35;10.75;;;;;;;;;;5110784;28;20050;-80
2022/04/25 01:37:17;;;;;;;17.92;9.80;;;;;;;;;;5110755;28;20088;-80
2022/04/25 01:39:45;;;;;;;19.05;10.02;;;;;;;;;;5110765;28;20124;-79
2022/04/25 01:42:11;;;;;;;17.80;10.32;;;;;;;;;;5110475;28;20040;-78
2022/04/25 01:44:37;;;;;;;23.33;10.98;;;;;;;;;;5110083;28;20418;-79
2022/04/25 01:47:04;;;;;;;19.88;10.73;;;;;;;;;;5109989;28;20051;-77
2022/04/25 01:49:32;;;;;;;25.73;11.13;;;;;;;;;;5110364;28;20042;-80
2022/04/25 01:51:58;;;;;;;21.13;10.93;;;;;;;;;;5110007;28;20042;-79
2022/04/25 01:54:28;;;;;;;21.90;10.70;;;;;;;;;;5093292;28;20049;-79
2022/04/25 01:56:54;;;;;;;20.38;10.90;;;;;;;;;;5109851;28;20050;-79
2022/04/25 01:59:21;;;;;;;19.10;10.90;;;;;;;;;;5110306;28;20395;-80
2022/04/25 02:01:47;;;;;;;22.73;10.88;;;;;;;;;;5090007;28;20088;-79
2022/04/25 02:04:13;;;;;;;19.58;11.52;;;;;;;;;;5109564;28;20491;-79
2022/04/25 02:06:39;;;;;;;20.20;12.10;;;;;;;;;;5091613;28;20069;-78
2022/04/25 02:09:06;;;;;;;24.27;13.10;;;;;;;;;;5110048;28;20031;-79
2022/04/25 02:11:32;;;;;;;20.42;12.30;;;;;;;;;;5110089;28;20039;-79
2022/04/25 02:13:58;;;;;;;20.77;11.73;;;;;;;;;;5110131;28;20082;-80
2022/04/25 02:16:25;;;;;;;20.35;11.98;;;;;;;;;;5109995;28;20035;-82
2022/04/25 02:18:52;;;;;;;22.70;12.15;;;;;;;;;;5092789;28;20040;-80
2022/04/25 02:21:18;;;;;;;20.80;12.50;;;;;;;;;;5111167;28;20040;-79
2022/04/25 02:23:44;;;;;;;20.20;11.55;;;;;;;;;;5092611;28;20036;-80
2022/04/25 02:26:10;;;;;;;21.23;12.50;;;;;;;;;;5092529;28;20047;-80
2022/04/25 02:28:37;;;;;;;22.50;12.55;;;;;;;;;;5109309;28;20043;-80
2022/04/25 02:31:05;;;;;;;19.42;11.85;;;;;;;;;;5108016;28;20411;-79
2022/04/25 02:33:32;;;;;;;20.10;12.13;;;;;;;;;;5092545;28;20187;-79
2022/04/25 02:35:58;;;;;;;23.60;11.95;;;;;;;;;;5107199;28;20079;-80
2022/04/25 02:38:24;;;;;;;19.95;12.20;;;;;;;;;;5092382;28;20128;-80
2022/04/25 02:41:04;;;;;;;18.90;10.90;;;;;;;;;;5109579;28;20070;-79
2022/04/25 02:43:34;;;;;;;20.42;11.60;;;;;;;;;;5092686;28;20035;-80
2022/04/25 02:46:01;;;;;;;21.85;12.18;;;;;;;;;;5109278;28;20046;-81
2022/04/25 02:48:27;;;;;;;20.73;12.05;;;;;;;;;;5109258;28;20036;-80
2022/04/25 02:50:53;;;;;;;20.20;12.18;;;;;;;;;;5092061;28;20036;-80
2022/04/25 02:53:19;;;;;;;21.58;11.52;;;;;;;;;;5110661;28;20031;-80
2022/04/25 02:55:45;;;;;;;20.63;12.13;;;;;;;;;;5109759;28;20479;-79
2022/04/25 02:58:11;;;;;;;20.08;11.50;;;;;;;;;;5109433;28;20044;-80
2022/04/25 03:00:38;;;;;;;20.50;12.32;;;;;;;;;;5109390;28;20582;-80
2022/04/25 03:03:05;;;;;;;18.20;11.20;;;;;;;;;;5109312;28;20083;-79
2022/04/25 03:05:31;;;;;;;20.15;11.23;;;;;;;;;;5109855;28;20231;-79
2022/04/25 03:07:57;;;;;;;23.77;11.77;;;;;;;;;;5108808;28;20067;-79
2022/04/25 03:10:23;;;;;;;20.40;11.63;;;;;;;;;;5091651;28;20039;-78
2022/04/25 03:12:49;;;;;;;21.13;12.00;;;;;;;;;;5108573;28;20035;-80
2022/04/25 03:15:15;;;;;;;17.42;10.75;;;;;;;;;;5109759;28;20050;-80
2022/04/25 03:17:41;;;;;;;19.77;11.25;;;;;;;;;;5108910;28;20035;-79
2022/04/25 03:20:08;;;;;;;20.10;11.50;;;;;;;;;;5109670;28;20283;-82
2022/04/25 03:22:34;;;;;;;21.35;12.27;;;;;;;;;;5091780;28;20052;-80
2022/04/25 03:25:00;;;;;;;21.70;12.57;;;;;;;;;;5091986;28;20044;-80
2022/04/25 03:27:26;;;;;;;22.90;12.40;;;;;;;;;;5091812;28;20044;-79
2022/04/25 03:29:52;;;;;;;21.95;12.68;;;;;;;;;;5092051;28;20055;-79
2022/04/25 03:32:18;;;;;;;23.40;12.88;;;;;;;;;;5108936;28;20382;-80
2022/04/25 03:34:44;;;;;;;22.83;11.88;;;;;;;;;;5091492;28;20696;-80
2022/04/25 03:37:11;;;;;;;22.42;12.25;;;;;;;;;;5108970;28;20402;-79
2022/04/25 03:39:37;;;;;;;22.48;12.57;;;;;;;;;;5091815;28;20048;-81
2022/04/25 03:42:04;;;;;;;20.45;12.07;;;;;;;;;;5108495;28;20046;-80
2022/04/25 03:44:30;;;;;;;21.02;12.80;;;;;;;;;;5091739;28;20031;-80
2022/04/25 03:46:56;;;;;;;23.63;12.82;;;;;;;;;;5108326;28;20104;-80
2022/04/25 03:49:22;;;;;;;22.50;12.70;;;;;;;;;;5109007;28;20042;-80
2022/04/25 03:51:48;;;;;;;20.75;11.68;;;;;;;;;;5091109;28;20123;-79
2022/04/25 03:57:09;;;;;;;22.88;12.20;;;;;;;;;;5091945;28;20036;-79
2022/04/25 03:57:12;;;;;;;22.23;12.80;;;;;;;;;;5108478;28;20040;-80
2022/04/25 03:59:39;;;;;;;21.60;11.35;;;;;;;;;;5108727;28;20383;-80
2022/04/25 04:02:06;;;;;;;18.70;11.60;;;;;;;;;;5105898;28;20647;-80
2022/04/25 04:04:33;;;;;;;22.35;13.00;;;;;;;;;;5091373;28;20043;-80
2022/04/25 04:06:59;;;;;;;20.52;12.93;;;;;;;;;;5090160;28;20086;-81
2022/04/25 04:12:10;;;;;;;21.83;13.02;;;;;;;;;;5109504;28;20043;-80
2022/04/25 04:14:36;;;;;;;21.85;12.38;;;;;;;;;;5112148;28;20048;-79
2022/04/25 04:17:04;;;;;;;22.17;12.07;;;;;;;;;;5113476;28;20051;-81
2022/04/25 04:19:30;;;;;;;27.17;13.60;;;;;;;;;;5112121;28;20043;-80
2022/04/25 04:21:56;;;;;;;24.65;13.63;;;;;;;;;;5095319;28;20566;-81
2022/04/25 04:24:22;;;;;;;21.25;12.20;;;;;;;;;;5112071;28;20068;-82
2022/04/25 04:26:48;;;;;;;22.33;14.13;;;;;;;;;;5111516;28;20062;-81
2022/04/25 04:29:14;;;;;;;26.23;14.38;;;;;;;;;;5112425;28;20507;-80
2022/04/25 04:31:40;;;;;;;25.98;13.73;;;;;;;;;;5111574;28;20092;-80
2022/04/25 04:34:06;;;;;;;22.83;13.05;;;;;;;;;;5111713;28;20036;-81
2022/04/25 04:36:32;;;;;;;22.42;13.02;;;;;;;;;;5111458;28;20031;-79
2022/04/25 04:38:59;;;;;;;24.77;12.63;;;;;;;;;;5094902;28;20044;-79
2022/04/25 04:41:25;;;;;;;23.52;13.48;;;;;;;;;;5112053;28;20505;-80
2022/04/25 04:43:51;;;;;;;24.27;13.98;;;;;;;;;;5113109;28;20402;-81
2022/04/25 04:46:17;;;;;;;24.15;12.45;;;;;;;;;;5094700;28;20114;-80
2022/04/25 04:48:43;;;;;;;23.55;13.25;;;;;;;;;;5111389;28;20035;-81
2022/04/25 04:51:10;;;;;;;22.02;12.07;;;;;;;;;;5111592;28;20031;-81
2022/04/25 04:53:36;;;;;;;30.92;13.48;;;;;;;;;;5093946;28;20035;-81
2022/04/25 04:56:03;;;;;;;23.80;11.88;;;;;;;;;;5111845;28;20403;-80
2022/04/25 04:58:29;;;;;;;23.13;12.57;;;;;;;;;;5094752;28;20036;-80
2022/04/25 05:00:55;;;;;;;22.77;12.38;;;;;;;;;;5111214;28;20050;-81
2022/04/25 05:03:25;;;;;;;22.63;12.07;;;;;;;;;;5111412;28;20096;-81
2022/04/25 05:05:51;;;;;;;21.02;12.45;;;;;;;;;;5110785;28;20059;-81
2022/04/25 05:08:17;;;;;;;20.02;11.75;;;;;;;;;;5111652;28;20031;-80
2022/04/25 05:10:43;;;;;;;20.67;11.85;;;;;;;;;;5110934;28;20044;-81
2022/04/25 05:13:10;;;;;;;21.55;12.07;;;;;;;;;;5111069;28;20048;-81
2022/04/25 05:15:37;;;;;;;22.58;13.18;;;;;;;;;;5111145;28;20043;-79
2022/04/25 05:18:03;;;;;;;24.42;12.77;;;;;;;;;;5111121;28;20050;-80
2022/04/25 05:20:29;;;;;;;21.15;12.05;;;;;;;;;;5110794;28;20039;-79
2022/04/25 05:22:56;;;;;;;26.65;12.90;;;;;;;;;;5110472;28;20039;-79
2022/04/25 05:25:24;;;;;;;20.23;12.05;;;;;;;;;;5110744;28;20044;-78
2022/04/25 05:27:54;;;;;;;19.90;11.95;;;;;;;;;;5110686;28;20043;-79
2022/04/25 05:30:21;;;;;;;20.90;11.52;;;;;;;;;;5110880;28;20071;-78
2022/04/25 05:32:49;;;;;;;22.88;12.48;;;;;;;;;;5093613;28;20479;-78
2022/04/25 05:35:16;;;;;;;20.48;12.20;;;;;;;;;;5093693;28;20086;-79
2022/04/25 05:37:42;;;;;;;18.55;11.48;;;;;;;;;;5110303;28;20028;-84
2022/04/25 05:40:08;;;;;;;21.85;12.20;;;;;;;;;;5110306;28;20067;-79
2022/04/25 05:42:35;;;;;;;18.98;11.35;;;;;;;;;;5093646;28;20092;-78
2022/04/25 05:45:01;;;;;;;18.92;11.00;;;;;;;;;;5093800;28;20046;-79
2022/04/25 05:47:28;;;;;;;18.90;12.05;;;;;;;;;;5110484;28;20364;-78
2022/04/25 05:52:38;;;;;;;20.55;11.65;;;;;;;;;;5110014;28;20035;-78
2022/04/25 05:55:05;;;;;;;21.83;11.40;;;;;;;;;;5110463;28;20036;-83
2022/04/25 05:57:31;;;;;;;18.73;11.18;;;;;;;;;;5110208;28;20075;-81
2022/04/25 05:59:57;;;;;;;20.83;11.75;;;;;;;;;;5110353;28;20043;-78
2022/04/25 06:02:23;;;;;;;16.17;10.35;;;;;;;;;;5112017;28;20074;-78
2022/04/25 06:04:49;;;;;;;19.10;11.35;;;;;;;;;;5109680;28;20040;-78
2022/04/25 06:07:15;;;;;;;19.15;11.02;;;;;;;;;;5110220;28;20114;-85
2022/04/25 06:09:42;;;;;;;20.20;11.35;;;;;;;;;;5075769;28;20082;-78
2022/04/25 06:12:08;;;;;;;21.25;10.52;;;;;;;;;;5109429;28;20027;-77
2022/04/25 06:14:34;;;;;;;18.52;10.15;;;;;;;;;;5093405;28;20065;-75
2022/04/25 06:17:01;;;;;;;17.60;10.82;;;;;;;;;;5110530;28;20039;-79
2022/04/25 06:19:27;;;;;;;24.85;10.77;;;;;;;;;;5093050;28;20046;-82
2022/04/25 06:21:53;;;;;;;16.95;10.98;;;;;;;;;;5093406;28;20039;-80
2022/04/25 06:24:19;;;;;;;17.98;11.23;;;;;;;;;;5111490;28;20874;-76
2022/04/25 06:26:47;;;;;;;16.33;10.57;;;;;;;;;;5109720;28;20105;-80
2022/04/25 06:29:13;;;;;;;16.33;9.95;;;;;;;;;;5093326;28;20070;-79
2022/04/25 06:31:39;;;;;;;17.10;10.40;;;;;;;;;;5091247;28;20575;-83
2022/04/25 06:34:05;;;;;;;17.70;10.48;;;;;;;;;;5109372;28;20046;-78
2022/04/25 06:36:32;;;;;;;15.10;9.50;;;;;;;;;;5109678;28;20042;-83
2022/04/25 06:38:58;;;;;;;17.85;10.05;;;;;;;;;;5092269;28;20084;-80
2022/04/25 06:41:24;;;;;;;16.10;9.90;;;;;;;;;;5092646;28;20135;-77
2022/04/25 06:43:50;;;;;;;19.60;9.45;;;;;;;;;;5092074;28;20043;-79
2022/04/25 06:46:16;;;;;;;12.90;8.50;;;;;;;;;;5109368;28;20048;-78
2022/04/25 06:49:19;;;;;;;24.65;9.50;;;;;;;;;;5110461;28;20497;-78
2022/04/25 06:51:30;;;;;;;15.27;9.27;;;;;;;;;;5108714;28;20082;-78
2022/04/25 06:53:57;;;;;;;16.17;9.13;;;;;;;;;;5108832;28;20051;-82
2022/04/25 06:56:23;;;;;;;13.25;8.70;;;;;;;;;;5110640;28;20058;-81
2022/04/25 06:58:49;;;;;;;12.45;8.18;;;;;;;;;;5108946;28;20411;-86
2022/04/25 07:01:15;;;;;;;16.13;8.25;;;;;;;;;;5109340;28;20035;-75
2022/04/25 07:03:42;;;;;;;13.77;9.18;;;;;;;;;;5109391;28;20044;-76
2022/04/25 07:06:08;;;;;;;16.90;8.82;;;;;;;;;;5093173;28;20050;-76
2022/04/25 07:08:34;;;;;;;16.95;9.02;;;;;;;;;;5110134;28;20043;-76
2022/04/25 07:11:00;;;;;;;16.48;8.82;;;;;;;;;;5092382;28;20057;-76
2022/04/25 07:13:26;;;;;;;14.57;8.88;;;;;;;;;;5092999;28;20032;-75
2022/04/25 07:15:52;;;;;;;16.75;9.30;;;;;;;;;;5109292;28;20053;-81
2022/04/25 07:18:18;;;;;;;16.58;8.38;;;;;;;;;;5111104;28;20032;-77
2022/04/25 07:20:44;;;;;;;17.15;9.50;;;;;;;;;;5109347;28;20114;-81
2022/04/25 07:28:49;;;;;;;17.17;8.93;;;;;;;;;;5109059;28;20040;-80
2022/04/25 07:31:15;;;;;;;15.10;8.67;;;;;;;;;;5092630;28;20040;-79
2022/04/25 07:33:43;;;;;;;18.08;9.63;;;;;;;;;;5109629;28;20084;-83
2022/04/25 07:36:09;;;;;;;13.68;9.10;;;;;;;;;;5108835;28;20538;-80
2022/04/25 07:38:36;;;;;;;15.63;9.30;;;;;;;;;;5108924;28;20055;-79
2022/04/25 07:41:02;;;;;;;17.23;9.40;;;;;;;;;;5109836;28;20035;-86
2022/04/25 07:43:29;;;;;;;16.60;9.50;;;;;;;;;;5112771;28;20437;-80
2022/04/25 07:45:55;;;;;;;18.67;9.10;;;;;;;;;;5112536;28;20084;-80
2022/04/25 07:48:21;;;;;;;16.23;9.38;;;;;;;;;;5112958;28;20110;-77
2022/04/25 07:50:48;;;;;;;17.35;9.30;;;;;;;;;;5112573;28;20040;-79
2022/04/25 07:53:14;;;;;;;21.23;9.23;;;;;;;;;;5113022;28;20044;-80
2022/04/25 07:55:40;;;;;;;22.15;8.93;;;;;;;;;;5113737;28;20059;-77
2022/04/25 07:58:09;;;;;;;41.80;9.52;;;;;;;;;;5114128;28;20028;-80
2022/04/25 08:00:37;;;;;;;34.72;9.90;;;;;;;;;;5112748;28;20443;-81
2022/04/25 08:03:04;;;;;;;16.83;8.55;;;;;;;;;;5095785;28;20103;-79
2022/04/25 08:05:30;;;;;;;27.73;9.25;;;;;;;;;;5095006;28;20042;-85
2022/04/25 08:07:56;;;;;;;12.13;7.28;;;;;;;;;;5111797;28;20040;-83
2022/04/25 08:10:22;;;;;;;30.95;9.45;;;;;;;;;;5095483;28;20043;-78
2022/04/25 08:18:17;;;;;;;14.88;8.38;;;;;;;;;;5112307;28;20040;-77
2022/04/25 08:20:43;;;;;;;33.10;9.88;;;;;;;;;;5113359;28;20645;-77
2022/04/25 08:23:11;;;;;;;16.48;9.40;;;;;;;;;;5112586;28;20028;-85
2022/04/25 08:25:38;;;;;;;16.05;9.15;;;;;;;;;;5111808;28;20071;-82
2022/04/25 08:28:07;;;;;;;14.30;8.85;;;;;;;;;;5095085;28;20055;-79
2022/04/25 08:30:34;;;;;;;16.90;7.97;;;;;;;;;;5112135;28;20036;-75
2022/04/25 08:33:01;;;;;;;15.30;8.93;;;;;;;;;;5113025;28;20054;-77
2022/04/25 08:35:27;;;;;;;19.52;9.20;;;;;;;;;;5113047;28;20096;-75
2022/04/25 08:37:56;;;;;;;13.77;8.98;;;;;;;;;;5113198;28;20036;-78
2022/04/25 08:40:22;;;;;;;15.00;9.30;;;;;;;;;;5112655;28;20036;-75
2022/04/25 08:42:49;;;;;;;14.40;9.82;;;;;;;;;;5095458;28;20054;-81
2022/04/25 08:45:16;;;;;;;16.42;9.15;;;;;;;;;;5113133;28;20028;-76
2022/04/25 08:47:47;;;;;;;16.65;9.10;;;;;;;;;;5112805;28;20038;-75
2022/04/25 08:50:14;;;;;;;16.60;9.70;;;;;;;;;;5096020;28;20561;-80
2022/04/25 08:52:41;;;;;;;14.98;9.43;;;;;;;;;;5112413;28;20474;-78
2022/04/25 08:55:07;;;;;;;17.05;10.23;;;;;;;;;;5111242;28;20038;-75
2022/04/25 08:57:35;;;;;;;27.17;10.13;;;;;;;;;;5112646;28;20184;-74
2022/04/25 09:00:04;;;;;;;20.27;10.38;;;;;;;;;;5112775;28;20127;-79
2022/04/25 09:02:30;;;;;;;19.45;10.70;;;;;;;;;;5112578;28;20126;-82
2022/04/25 09:04:56;;;;;;;16.98;9.95;;;;;;;;;;5113292;28;20093;-79
2022/04/25 09:07:23;;;;;;;15.90;9.80;;;;;;;;;;5112095;28;20046;-76
2022/04/25 09:09:49;;;;;;;16.30;9.15;;;;;;;;;;5095422;28;20516;-81
2022/04/25 09:12:17;;;;;;;20.38;10.00;;;;;;;;;;5095264;28;20410;-77
2022/04/25 09:14:44;;;;;;;15.93;9.77;;;;;;;;;;5095604;28;20043;-81
2022/04/25 09:17:11;;;;;;;25.30;11.05;;;;;;;;;;5112613;28;20146;-80
2022/04/25 09:19:38;;;;;;;31.15;10.18;;;;;;;;;;5111595;28;20039;-75
2022/04/25 09:22:05;;;;;;;14.60;10.10;;;;;;;;;;5111877;28;20053;-76
2022/04/25 09:24:32;;;;;;;17.35;9.57;;;;;;;;;;5095766;28;20123;-81
2022/04/25 09:27:08;;;;;;;16.08;9.48;;;;;;;;;;5111233;28;20060;-74
2022/04/25 09:29:37;;;;;;;19.85;10.02;;;;;;;;;;5112257;28;20490;-75
2022/04/25 09:32:04;;;;;;;15.55;10.10;;;;;;;;;;5111559;28;20070;-78
2022/04/25 09:37:16;;;;;;;18.02;9.32;;;;;;;;;;5111429;28;20040;-74
2022/04/25 09:39:42;;;;;;;13.57;9.07;;;;;;;;;;5111381;28;20039;-74
2022/04/25 09:42:09;;;;;;;16.08;10.00;;;;;;;;;;5094163;28;20040;-75
2022/04/25 09:44:57;;;;;;;18.80;9.13;;;;;;;;;;5111910;28;20039;-76
2022/04/25 09:47:30;;;;;;;18.83;10.07;;;;;;;;;;5109829;28;20048;-77
2022/04/25 09:50:00;;;;;;;19.33;10.32;;;;;;;;;;5110524;28;20040;-75
2022/04/25 09:52:27;;;;;;;17.65;10.32;;;;;;;;;;5111702;28;20378;-79
2022/04/25 09:54:53;;;;;;;15.50;10.10;;;;;;;;;;5111301;28;20047;-74
2022/04/25 09:57:32;;;;;;;16.50;8.48;;;;;;;;;;5111234;28;20085;-74
2022/04/25 09:59:59;;;;;;;19.08;11.02;;;;;;;;;;5110945;28;20043;-75
2022/04/25 10:02:25;;;;;;;16.92;10.50;;;;;;;;;;5111109;28;20048;-74
2022/04/25 10:04:51;;;;;;;19.77;10.63;;;;;;;;;;5110895;28;20071;-75
2022/04/25 10:07:18;;;;;;;17.75;11.02;;;;;;;;;;5110871;28;20074;-75
2022/04/25 10:09:45;;;;;;;18.88;10.60;;;;;;;;;;5110020;28;20047;-73
2022/04/25 10:12:12;;;;;;;19.42;10.65;;;;;;;;;;5093898;28;20505;-74
2022/04/25 10:14:38;;;;;;;19.25;10.05;;;;;;;;;;5110331;28;20043;-75
2022/04/25 10:17:04;;;;;;;15.82;10.65;;;;;;;;;;5093437;28;20054;-77
2022/04/25 10:19:30;;;;;;;15.30;10.23;;;;;;;;;;5077253;28;20126;-76
2022/04/25 10:21:57;;;;;;;15.65;10.13;;;;;;;;;;5112037;28;20487;-81
2022/04/25 10:24:23;;;;;;;15.50;9.98;;;;;;;;;;5111423;28;20475;-75
2022/04/25 10:26:50;;;;;;;15.90;8.57;;;;;;;;;;5093003;28;20051;-75
2022/04/25 10:29:22;;;;;;;15.38;9.00;;;;;;;;;;5110244;28;20047;-75
2022/04/25 10:31:48;;;;;;;13.55;9.20;;;;;;;;;;5109783;28;20073;-83
2022/04/25 10:34:15;;;;;;;14.77;7.85;;;;;;;;;;5109366;28;20114;-80
2022/04/25 10:36:43;;;;;;;13.43;8.95;;;;;;;;;;5109863;28;20542;-79
2022/04/25 10:39:31;;;;;;;13.95;8.40;;;;;;;;;;5109625;28;20126;-80
2022/04/25 10:44:44;;;;;;;13.45;7.65;;;;;;;;;;5109588;28;20047;-82
2022/04/25 10:47:15;;;;;;;12.32;7.60;;;;;;;;;;5109379;28;20547;-78
2022/04/25 10:49:43;;;;;;;12.00;6.95;;;;;;;;;;5109356;28;20035;-81
2022/04/25 10:52:27;;;;;;;12.93;7.05;;;;;;;;;;5110361;28;20032;-79
2022/04/25 10:55:13;;;;;;;13.45;6.60;;;;;;;;;;5109232;28;20055;-81
2022/04/25 10:57:58;;;;;;;14.32;6.78;;;;;;;;;;5109282;28;20100;-77
2022/04/25 11:00:37;;;;;;;11.45;7.18;;;;;;;;;;5109403;28;20066;-83
2022/04/25 11:03:06;;;;;;;9.00;6.60;;;;;;;;;;5107113;28;20407;-82
2022/04/25 11:05:33;;;;;;;13.13;7.40;;;;;;;;;;5110354;28;20038;-82
2022/04/25 11:08:18;;;;;;;11.18;7.00;;;;;;;;;;5108762;28;20043;-77
2022/04/25 11:10:53;;;;;;;12.40;7.28;;;;;;;;;;5109117;28;20039;-82
2022/04/25 11:13:19;;;;;;;9.95;7.00;;;;;;;;;;5106653;28;20028;-83
2022/04/25 11:15:46;;;;;;;9.70;6.50;;;;;;;;;;5108519;28;20088;-78
2022/04/25 11:18:27;;;;;;;9.77;6.68;;;;;;;;;;5108778;28;20027;-80
2022/04/25 11:21:04;;;;;;;12.00;7.13;;;;;;;;;;5092147;28;20071;-84
2022/04/25 11:23:32;;;;;;;10.52;6.55;;;;;;;;;;5091905;28;20383;-78
2022/04/25 11:26:01;;;;;;;11.65;7.10;;;;;;;;;;5109479;28;20491;-78
2022/04/25 11:28:28;;;;;;;11.07;6.57;;;;;;;;;;5074980;28;20081;-79
2022/04/25 11:31:13;;;;;;;13.95;7.25;;;;;;;;;;5108815;28;20050;-85
2022/04/25 11:33:43;;;;;;;15.02;6.63;;;;;;;;;;5109605;28;20031;-84
2022/04/25 11:36:11;;;;;;;13.52;7.30;;;;;;;;;;5108972;28;20491;-78
2022/04/25 11:41:32;;;;;;;10.40;6.65;;;;;;;;;;5109158;28;20047;-79
2022/04/25 11:43:58;;;;;;;12.52;7.28;;;;;;;;;;5108377;28;20082;-79
2022/04/25 11:46:25;;;;;;;11.45;6.88;;;;;;;;;;5110247;28;20036;-81
2022/04/25 11:48:52;;;;;;;10.65;6.53;;;;;;;;;;5109096;28;20049;-75
2022/04/25 11:51:25;;;;;;;13.32;6.80;;;;;;;;;;5109116;28;20059;-75
2022/04/25 11:53:57;;;;;;;9.95;6.43;;;;;;;;;;5108729;28;20044;-81
2022/04/25 11:56:23;;;;;;;10.43;7.03;;;;;;;;;;5109354;28;20126;-75
2022/04/25 11:58:49;;;;;;;12.95;7.18;;;;;;;;;;5108436;28;20058;-75
2022/04/25 12:01:35;;;;;;;9.02;6.25;;;;;;;;;;5109190;28;20079;-75
2022/04/25 12:04:21;;;;;;;11.93;7.35;;;;;;;;;;5109464;28;20048;-81
2022/04/25 12:06:59;;;;;;;10.57;6.50;;;;;;;;;;5109109;28;20043;-78
2022/04/25 12:18:13;;;;;;;10.05;6.80;;;;;;;;;;5110099;28;20466;-74
2022/04/25 12:20:40;;;;;;;10.35;6.63;;;;;;;;;;5109103;28;20487;-74
2022/04/25 12:23:08;;;;;;;9.52;6.75;;;;;;;;;;5092160;28;20063;-75
2022/04/25 12:25:39;;;;;;;11.52;6.35;;;;;;;;;;5109217;28;20499;-80
2022/04/25 12:28:16;;;;;;;11.55;6.47;;;;;;;;;;5108809;28;20043;-78
2022/04/25 12:30:58;;;;;;;10.15;6.75;;;;;;;;;;5111718;28;20031;-76
2022/04/25 12:33:35;;;;;;;11.05;6.65;;;;;;;;;;5094062;28;20082;-78
2022/04/25 12:36:21;;;;;;;8.45;6.43;;;;;;;;;;5111689;28;20043;-83
2022/04/25 12:38:50;;;;;;;11.95;6.45;;;;;;;;;;5109710;28;20036;-83
2022/04/25 12:41:21;;;;;;;10.02;6.43;;;;;;;;;;5095379;28;20047;-80
2022/04/25 12:43:48;;;;;;;11.10;6.85;;;;;;;;;;5111626;28;20051;-74
2022/04/25 12:46:15;;;;;;;9.90;6.90;;;;;;;;;;5078419;28;20159;-75
2022/04/25 12:49:01;;;;;;;12.63;7.47;;;;;;;;;;5111866;28;20044;-80
2022/04/25 12:51:36;;;;;;;12.02;6.75;;;;;;;;;;5113104;28;20031;-76
2022/04/25 12:54:03;;;;;;;11.40;7.13;;;;;;;;;;5112507;28;20096;-75
2022/04/25 12:56:30;;;;;;;9.40;5.95;;;;;;;;;;5111694;28;20119;-82
2022/04/25 12:58:57;;;;;;;12.10;7.10;;;;;;;;;;5112557;28;20032;-79
2022/04/25 13:01:34;;;;;;;12.13;7.53;;;;;;;;;;5113026;28;20045;-79
2022/04/25 13:04:06;;;;;;;9.50;6.32;;;;;;;;;;5113267;28;20396;-79
2022/04/25 13:06:33;;;;;;;10.50;6.30;;;;;;;;;;5114869;28;20027;-80
2022/04/25 13:08:59;;;;;;;10.88;6.88;;;;;;;;;;5114576;28;20402;-84
2022/04/25 13:11:25;;;;;;;10.63;6.43;;;;;;;;;;5079279;28;20042;-79
2022/04/25 13:13:51;;;;;;;11.15;6.65;;;;;;;;;;5112362;28;20119;-82
2022/04/25 13:16:17;;;;;;;11.32;6.30;;;;;;;;;;5111737;28;20399;-85
2022/04/25 13:18:43;;;;;;;9.80;6.45;;;;;;;;;;5111072;28;20047;-81
2022/04/25 13:21:13;;;;;;;11.05;6.68;;;;;;;;;;5111277;28;20039;-79
2022/04/25 13:23:39;;;;;;;11.77;6.82;;;;;;;;;;5111009;28;20048;-80
2022/04/25 13:26:06;;;;;;;8.35;6.07;;;;;;;;;;5093731;28;20055;-78
2022/04/25 13:28:32;;;;;;;11.57;6.63;;;;;;;;;;5111497;28;20570;-78
2022/04/25 13:30:58;;;;;;;10.13;6.32;;;;;;;;;;5093844;28;20100;-79
2022/04/25 13:33:24;;;;;;;9.27;6.47;;;;;;;;;;5110228;28;20035;-79
2022/04/25 13:35:50;;;;;;;10.13;6.32;;;;;;;;;;5110483;28;20063;-84
2022/04/25 13:38:16;;;;;;;9.77;6.55;;;;;;;;;;5111032;28;20089;-77
2022/04/25 13:40:42;;;;;;;10.57;6.30;;;;;;;;;;5094044;28;20078;-79
2022/04/25 13:43:09;;;;;;;11.27;6.95;;;;;;;;;;5112218;28;20572;-81
2022/04/25 13:45:35;;;;;;;9.93;6.70;;;;;;;;;;5112785;28;20039;-80
2022/04/25 13:48:02;;;;;;;10.70;7.20;;;;;;;;;;5094053;28;20040;-79
2022/04/25 13:50:28;;;;;;;10.50;6.70;;;;;;;;;;5094077;28;20031;-80
2022/04/25 13:52:54;;;;;;;11.25;6.72;;;;;;;;;;5110794;28;20130;-79
2022/04/25 13:55:20;;;;;;;10.57;7.22;;;;;;;;;;5111547;28;20040;-76
2022/04/25 13:57:47;;;;;;;11.00;6.90;;;;;;;;;;5111333;28;20142;-73
2022/04/25 14:00:13;;;;;;;11.52;6.47;;;;;;;;;;5111224;28;20180;-75
2022/04/25 14:05:24;;;;;;;9.35;6.40;;;;;;;;;;5110217;28;20099;-77
2022/04/25 14:07:51;;;;;;;10.10;6.82;;;;;;;;;;5093492;28;20047;-81
2022/04/25 14:10:17;;;;;;;10.80;6.20;;;;;;;;;;5093754;28;20082;-75
2022/04/25 14:12:43;;;;;;;11.13;6.43;;;;;;;;;;5110911;28;20044;-80
2022/04/25 14:15:09;;;;;;;14.05;6.43;;;;;;;;;;5111254;28;20411;-79
2022/04/25 14:17:35;;;;;;;10.75;6.45;;;;;;;;;;5093765;28;20043;-80
2022/04/25 14:20:02;;;;;;;12.20;6.97;;;;;;;;;;5110689;28;20119;-76
2022/04/25 14:22:29;;;;;;;9.38;6.80;;;;;;;;;;5112041;28;20149;-80
2022/04/25 14:24:55;;;;;;;10.10;6.70;;;;;;;;;;5092971;28;20047;-81
2022/04/25 14:27:21;;;;;;;11.50;6.32;;;;;;;;;;5076603;28;20055;-79
2022/04/25 14:29:47;;;;;;;128.63;10.27;;;;;;;;;;5110793;28;20032;-81
2022/04/25 14:32:14;;;;;;;28.02;7.28;;;;;;;;;;5094228;28;20240;-80
2022/04/25 14:34:40;;;;;;;20.27;7.55;;;;;;;;;;5112424;28;20123;-79
2022/04/25 14:37:06;;;;;;;10.60;6.82;;;;;;;;;;5110812;28;20059;-83
2022/04/25 14:39:34;;;;;;;16.40;7.32;;;;;;;;;;5110676;28;20074;-81
2022/04/25 14:42:00;;;;;;;15.23;8.15;;;;;;;;;;5111375;28;20054;-80
2022/04/25 14:44:27;;;;;;;15.18;7.30;;;;;;;;;;5110346;28;20038;-75
2022/04/25 14:46:54;;;;;;;9.48;6.45;;;;;;;;;;5110000;28;20054;-81
2022/04/25 14:54:20;;;;;;;10.50;6.70;;;;;;;;;;5109458;28;20040;-79
2022/04/25 14:54:52;;;;;;;9.35;6.70;;;;;;;;;;5109218;28;20047;-81
2022/04/25 14:57:18;;;;;;;11.77;6.47;;;;;;;;;;5109634;28;20462;-80
2022/04/25 14:59:44;;;;;;;9.50;6.40;;;;;;;;;;5109253;28;20047;-82
2022/04/25 15:02:10;;;;;;;10.35;6.15;;;;;;;;;;5110431;28;20071;-80
2022/04/25 15:04:37;;;;;;;14.32;6.90;;;;;;;;;;5109610;28;20035;-80
2022/04/25 15:07:03;;;;;;;10.52;6.47;;;;;;;;;;5110154;28;20043;-76
2022/04/25 15:09:29;;;;;;;8.77;6.13;;;;;;;;;;5110230;28;20502;-81
2022/04/25 15:11:56;;;;;;;10.50;6.05;;;;;;;;;;5112813;28;20096;-74